Terminal Aerodrome Forecast
Issued by NWS

Home | Current Version | Previous Version | Text Only | Print | Product List | Glossary On
Versions: 1 2 3 4 5 6 7 8 9 10 11 12
626
FTUS45 KABQ 070526
TAFSAF
TAF
KSAF 070526Z 0706/0806 34007KT P6SM SKC
     FM071300 35014KT P6SM SKC
     FM072000 33007KT P6SM SKC
     FM080200 02006KT P6SM SKC=

USA.gov is the U.S. government's official web portal to all federal, state and local government web resources and services.